Time;durP1;ratioP1;P1;durP2;ratioP2;P2;SDS_P1;SDS_P2;PMS_P1;PMS_P2;Temp;Humidity;BMP_temperature;BMP_pressure;BME280_temperature;BME280_humidity;BME280_pressure;Samples;Min_cycle;Max_cycle;Signal;HPM_P1;HPM_P2
2024/02/28 00:00:10;;;;;;;21.63;14.23;;;;;;;6.88;72.48;98563.97;4981358;28;105719;-64
2024/02/28 00:02:39;;;;;;;21.67;14.85;;;;;;;6.74;72.46;98566.09;5004894;27;103297;-62
2024/02/28 00:05:07;;;;;;;26.40;15.52;;;;;;;6.86;72.37;98569.34;4980321;27;102781;-62
2024/02/28 00:07:35;;;;;;;24.52;15.30;;;;;;;6.87;72.23;98568.38;4972266;28;103083;-65
2024/02/28 00:10:04;;;;;;;23.10;14.60;;;;;;;6.83;73.05;98568.84;4989557;27;103079;-63
2024/02/28 00:12:32;;;;;;;22.08;14.90;;;;;;;6.78;72.79;98564.81;4991650;28;103206;-68
2024/02/28 00:15:00;;;;;;;25.17;14.60;;;;;;;6.79;72.19;98568.31;4970336;27;103013;-67
2024/02/28 00:17:32;;;;;;;25.13;16.23;;;;;;;6.76;72.11;98574.69;4999208;28;102823;-68
2024/02/28 00:20:00;;;;;;;22.13;14.93;;;;;;;6.64;72.85;98579.31;4990779;27;103475;-66
2024/02/28 00:22:28;;;;;;;25.02;16.00;;;;;;;6.68;72.67;98569.34;4980578;28;105267;-68
2024/02/28 00:24:56;;;;;;;26.65;15.15;;;;;;;6.77;71.70;98572.88;4997383;28;103367;-68
2024/02/28 00:27:24;;;;;;;23.10;14.32;;;;;;;6.89;71.27;98579.63;4997170;27;103057;-68
2024/02/28 00:29:52;;;;;;;24.88;16.67;;;;;;;6.85;70.85;98577.41;4985974;28;103165;-67
2024/02/28 00:32:20;;;;;;;25.58;15.98;;;;;;;6.91;70.83;98572.38;4994788;28;107662;-68
2024/02/28 00:34:49;;;;;;;24.15;16.15;;;;;;;6.92;70.25;98578.50;4996353;28;102709;-68
2024/02/28 00:37:17;;;;;;;24.20;16.42;;;;;;;6.87;71.01;98578.09;4991785;28;103931;-66
2024/02/28 00:39:46;;;;;;;25.85;17.65;;;;;;;6.79;70.04;98576.19;4993119;28;103689;-68
2024/02/28 00:42:14;;;;;;;24.50;16.38;;;;;;;6.78;70.29;98575.34;4974283;28;105806;-67
2024/02/28 00:44:43;;;;;;;25.77;16.75;;;;;;;6.88;69.99;98579.78;4979753;28;102964;-67
2024/02/28 00:47:11;;;;;;;26.02;17.42;;;;;;;6.72;70.43;98577.75;4995054;27;102725;-67
2024/02/28 00:49:39;;;;;;;23.52;14.75;;;;;;;6.80;70.54;98578.69;4993904;28;103313;-67
2024/02/28 00:52:08;;;;;;;28.50;17.23;;;;;;;6.70;70.82;98572.63;4992650;27;103331;-68
2024/02/28 00:54:36;;;;;;;28.70;17.13;;;;;;;6.63;71.61;98582.09;4996655;27;102941;-68
2024/02/28 00:57:04;;;;;;;26.13;17.17;;;;;;;6.61;71.67;98579.59;4988021;27;102950;-68
2024/02/28 00:59:32;;;;;;;24.20;16.40;;;;;;;6.57;71.40;98582.69;4974009;28;103856;-68
2024/02/28 01:02:00;;;;;;;26.73;15.73;;;;;;;6.68;71.48;98584.28;4975189;28;105484;-67
2024/02/28 01:04:28;;;;;;;27.35;16.65;;;;;;;6.64;71.08;98583.75;4997272;27;103132;-68
2024/02/28 01:06:56;;;;;;;25.85;17.73;;;;;;;6.67;71.08;98580.00;4999949;27;102691;-67
2024/02/28 01:09:25;;;;;;;26.75;17.02;;;;;;;6.55;71.51;98579.34;4973320;28;105247;-67
2024/02/28 01:11:54;;;;;;;28.58;17.17;;;;;;;6.62;71.57;98583.06;4995293;27;104047;-66
2024/02/28 01:14:21;;;;;;;25.10;16.20;;;;;;;6.62;71.23;98586.53;4975449;28;102605;-67
2024/02/28 01:16:49;;;;;;;28.70;17.75;;;;;;;6.63;71.48;98590.00;4995533;27;103167;-67
2024/02/28 01:19:17;;;;;;;28.27;17.75;;;;;;;6.50;72.13;98584.22;4976973;28;104896;-67
2024/02/28 01:21:45;;;;;;;25.88;17.40;;;;;;;6.61;71.38;98589.31;4991168;27;103347;-67
2024/02/28 01:24:16;;;;;;;26.75;17.45;;;;;;;6.68;71.99;98584.28;4991371;28;102608;-67
2024/02/28 01:26:45;;;;;;;35.20;18.35;;;;;;;6.56;72.00;98589.72;4979051;28;102791;-67
2024/02/28 01:29:13;;;;;;;34.67;18.92;;;;;;;6.54;72.51;98582.97;4970739;28;105905;-68
2024/02/28 01:31:41;;;;;;;32.17;18.17;;;;;;;6.50;72.71;98589.47;4993853;28;103127;-66
2024/02/28 01:34:09;;;;;;;27.25;17.77;;;;;;;6.50;72.57;98592.97;4998450;28;102859;-67
2024/02/28 01:36:37;;;;;;;28.15;17.15;;;;;;;6.61;72.25;98590.13;4998249;28;104730;-68
2024/02/28 01:39:05;;;;;;;28.15;18.17;;;;;;;6.55;72.19;98593.34;4996508;27;103148;-67
2024/02/28 01:41:33;;;;;;;26.77;17.60;;;;;;;6.60;72.68;98587.63;4995176;28;103338;-68
2024/02/28 01:44:02;;;;;;;25.98;17.20;;;;;;;6.48;72.04;98594.91;4996994;27;103807;-68
2024/02/28 01:46:32;;;;;;;25.05;15.55;;;;;;;6.65;72.28;98601.19;4991961;28;102691;-67
2024/02/28 01:49:00;;;;;;;29.15;17.85;;;;;;;6.61;72.09;98605.09;4990127;27;103210;-63
2024/02/28 01:51:28;;;;;;;27.63;17.35;;;;;;;6.39;72.57;98604.50;4974550;28;105373;-63
2024/02/28 01:54:00;;;;;;;29.55;17.45;;;;;;;6.42;72.25;98606.84;4975335;27;102560;-63
2024/02/28 01:56:28;;;;;;;27.98;18.23;;;;;;;6.56;71.99;98607.34;4992490;28;102610;-63
2024/02/28 01:58:57;;;;;;;30.15;18.33;;;;;;;6.50;71.95;98610.53;4989707;27;103294;-62
2024/02/28 02:01:27;;;;;;;27.35;17.40;;;;;;;6.52;72.20;98611.22;4973476;28;103588;-63
2024/02/28 02:03:55;;;;;;;28.20;18.08;;;;;;;6.77;70.87;98607.09;4993443;27;102930;-67
2024/02/28 02:06:24;;;;;;;31.50;19.02;;;;;;;6.84;71.29;98615.22;4996800;28;102621;-67
2024/02/28 02:08:52;;;;;;;30.88;15.95;;;;;;;6.98;70.84;98609.47;4994442;28;103801;-67
2024/02/28 02:11:21;;;;;;;23.25;14.75;;;;;;;7.02;70.80;98617.91;4990714;28;107842;-67
2024/02/28 02:13:50;;;;;;;24.27;15.57;;;;;;;7.07;70.91;98615.66;4988478;28;109056;-66
2024/02/28 02:16:19;;;;;;;27.35;16.98;;;;;;;6.95;71.70;98622.94;4957768;28;102828;-67
2024/02/28 02:18:49;;;;;;;22.15;14.25;;;;;;;6.83;72.76;98619.69;4991510;28;103173;-67
2024/02/28 02:21:21;;;;;;;27.25;16.00;;;;;;;6.96;72.18;98629.88;4974970;28;106318;-67
2024/02/28 02:23:50;;;;;;;21.10;14.57;;;;;;;6.93;72.12;98628.38;4991533;28;102721;-67
2024/02/28 02:26:18;;;;;;;22.33;14.25;;;;;;;6.88;72.36;98621.88;4991795;28;103076;-67
2024/02/28 02:28:48;;;;;;;23.98;14.85;;;;;;;6.73;72.41;98626.78;4975344;28;106559;-67
2024/02/28 02:31:16;;;;;;;21.67;13.88;;;;;;;6.72;72.89;98628.59;4974063;28;104564;-67
2024/02/28 02:33:44;;;;;;;21.63;14.32;;;;;;;6.79;72.50;98631.47;4981410;28;102750;-67
2024/02/28 02:36:12;;;;;;;24.25;14.48;;;;;;;6.79;72.49;98632.31;4990631;28;103001;-67
2024/02/28 02:38:40;;;;;;;22.65;14.55;;;;;;;6.75;72.86;98638.84;4994990;28;103243;-67
2024/02/28 02:41:10;;;;;;;22.52;13.70;;;;;;;6.97;72.40;98636.81;4988747;28;103824;-63
2024/02/28 02:43:38;;;;;;;23.27;14.70;;;;;;;6.65;73.05;98643.31;4992752;28;104118;-63
2024/02/28 02:46:05;;;;;;;21.48;14.02;;;;;;;6.87;72.13;98646.56;4995460;27;103028;-62
2024/02/28 02:48:33;;;;;;;22.75;14.40;;;;;;;6.84;72.50;98652.09;4984537;28;105470;-62
2024/02/28 02:51:01;;;;;;;21.83;14.23;;;;;;;6.71;72.87;98660.34;4996882;27;103887;-62
2024/02/28 02:53:29;;;;;;;23.35;13.38;;;;;;;6.85;72.56;98659.03;4997752;27;102704;-62
2024/02/28 02:55:59;;;;;;;25.15;16.10;;;;;;;6.56;72.58;98655.50;5002611;27;102752;-66
2024/02/28 02:58:29;;;;;;;22.40;14.07;;;;;;;6.62;72.53;98664.66;4992525;27;103753;-67
2024/02/28 03:00:57;;;;;;;48.97;16.30;;;;;;;6.33;74.51;98659.47;4977421;28;104452;-66
2024/02/28 03:03:25;;;;;;;24.65;15.18;;;;;;;6.39;74.00;98669.41;4993839;27;102870;-65
2024/02/28 03:05:55;;;;;;;23.17;14.27;;;;;;;6.52;73.64;98671.75;4984524;28;102837;-65
2024/02/28 03:08:25;;;;;;;26.30;15.43;;;;;;;6.39;74.14;98675.53;4980946;28;103395;-67
2024/02/28 03:10:54;;;;;;;30.85;16.73;;;;;;;6.40;73.21;98678.97;4995884;27;103497;-68
2024/02/28 03:13:22;;;;;;;25.75;16.02;;;;;;;6.45;73.60;98685.47;5000294;27;104186;-67
2024/02/28 03:15:52;;;;;;;27.20;15.50;;;;;;;6.49;73.01;98693.09;4993208;27;103763;-67
2024/02/28 03:18:20;;;;;;;21.27;13.77;;;;;;;6.67;72.83;98694.00;4994024;27;107985;-67
2024/02/28 03:20:48;;;;;;;25.58;15.15;;;;;;;6.61;73.27;98691.94;4994593;28;103205;-67
2024/02/28 03:23:16;;;;;;;22.75;14.85;;;;;;;6.55;72.87;98695.97;4996805;27;102661;-67
2024/02/28 03:25:45;;;;;;;22.98;14.52;;;;;;;6.54;73.75;98693.50;4997606;28;102787;-62
2024/02/28 03:28:13;;;;;;;25.85;15.93;;;;;;;6.30;74.02;98708.75;4995390;28;103339;-62
2024/02/28 03:30:40;;;;;;;20.20;13.13;;;;;;;6.51;73.62;98709.56;4994265;28;103285;-62
2024/02/28 03:33:10;;;;;;;24.05;14.88;;;;;;;6.46;73.21;98717.88;4997561;27;102726;-62
2024/02/28 03:35:39;;;;;;;24.17;14.30;;;;;;;6.52;73.43;98711.22;4994507;28;102736;-62
2024/02/28 03:38:09;;;;;;;28.60;16.67;;;;;;;6.53;72.33;98718.16;4991912;28;103283;-62
2024/02/28 03:40:37;;;;;;;25.23;15.35;;;;;;;6.42;73.38;98719.97;4994551;27;103242;-62
2024/02/28 03:43:05;;;;;;;21.60;14.00;;;;;;;6.57;73.17;98724.78;4983485;28;102811;-62
2024/02/28 03:45:38;;;;;;;22.02;14.48;;;;;;;6.58;72.70;98723.81;4995455;27;103821;-66
2024/02/28 03:48:07;;;;;;;28.88;15.68;;;;;;;6.55;72.18;98726.72;4996894;28;103763;-66
2024/02/28 03:50:37;;;;;;;21.95;13.85;;;;;;;6.70;72.53;98735.81;4991517;28;103128;-66
2024/02/28 03:53:05;;;;;;;24.42;13.45;;;;;;;6.71;72.44;98728.78;4993302;28;103080;-66
2024/02/28 03:55:37;;;;;;;23.55;15.43;;;;;;;6.64;72.34;98736.38;4996335;28;103170;-66
2024/02/28 03:58:08;;;;;;;21.67;13.00;;;;;;;6.67;72.70;98741.38;4995240;27;103791;-66
2024/02/28 04:00:36;;;;;;;25.27;14.20;;;;;;;6.72;72.25;98743.56;4999738;27;107348;-66
2024/02/28 04:03:05;;;;;;;21.08;13.32;;;;;;;6.64;72.62;98746.91;4995067;27;102744;-66
2024/02/28 04:05:33;;;;;;;23.02;15.70;;;;;;;6.49;72.70;98740.47;4969760;28;103589;-61
2024/02/28 04:08:02;;;;;;;27.13;15.50;;;;;;;6.39;73.12;98748.34;4965044;28;102802;-63
2024/02/28 04:10:31;;;;;;;26.90;15.13;;;;;;;6.19;74.27;98752.78;4978372;28;103306;-65
2024/02/28 04:12:59;;;;;;;23.42;14.68;;;;;;;6.09;74.21;98753.63;4949470;28;102797;-66
2024/02/28 04:15:28;;;;;;;20.58;13.90;;;;;;;6.23;74.10;98741.84;4954521;28;102716;-66
2024/02/28 04:17:58;;;;;;;21.75;14.35;;;;;;;6.19;74.36;98758.06;4970169;28;106133;-65
2024/02/28 04:20:27;;;;;;;23.35;15.23;;;;;;;6.08;74.00;98761.66;4987906;28;104582;-67
2024/02/28 04:22:55;;;;;;;28.27;15.88;;;;;;;6.08;74.10;98765.09;4969921;28;102714;-66
2024/02/28 04:25:24;;;;;;;26.10;15.65;;;;;;;5.98;74.84;98754.56;4979200;28;102673;-67
2024/02/28 04:27:52;;;;;;;24.48;14.80;;;;;;;6.09;73.83;98760.66;4990388;27;103258;-67
2024/02/28 04:30:20;;;;;;;22.98;14.88;;;;;;;5.93;75.26;98754.13;4988979;27;107882;-67
2024/02/28 04:32:48;;;;;;;23.10;14.27;;;;;;;5.80;75.56;98764.91;5004878;27;102881;-68
2024/02/28 04:35:18;;;;;;;24.20;15.43;;;;;;;5.73;75.43;98763.78;4981240;28;103033;-66
2024/02/28 04:37:47;;;;;;;23.80;13.48;;;;;;;5.80;75.47;98770.16;4972847;28;103760;-67
2024/02/28 04:40:15;;;;;;;28.58;15.85;;;;;;;5.75;75.44;98767.13;4965097;27;103429;-67
2024/02/28 04:42:44;;;;;;;27.55;14.93;;;;;;;5.94;75.20;98771.56;4957619;28;102731;-66
2024/02/28 04:45:12;;;;;;;24.55;15.80;;;;;;;5.73;75.63;98773.47;4981051;27;103200;-66
2024/02/28 04:47:40;;;;;;;23.15;14.63;;;;;;;5.64;76.33;98772.47;4988091;28;103473;-67
2024/02/28 04:50:11;;;;;;;22.73;14.93;;;;;;;5.68;75.84;98776.50;4990105;28;103222;-66
2024/02/28 04:52:39;;;;;;;23.65;16.10;;;;;;;5.48;76.48;98786.94;4986793;27;103005;-66
2024/02/28 04:55:08;;;;;;;24.20;15.27;;;;;;;5.63;76.97;98782.16;4981072;28;103482;-70
2024/02/28 04:57:36;;;;;;;23.77;15.80;;;;;;;5.71;76.03;98783.28;4979722;27;103896;-67
2024/02/28 05:00:07;;;;;;;24.75;16.40;;;;;;;5.68;75.69;98776.50;4985343;28;103206;-67
2024/02/28 05:02:35;;;;;;;26.58;15.93;;;;;;;5.84;75.33;98780.41;4973990;28;103732;-66
2024/02/28 05:05:07;;;;;;;27.27;16.75;;;;;;;5.71;75.62;98776.25;4956796;28;103016;-66
2024/02/28 05:07:35;;;;;;;21.80;14.23;;;;;;;5.79;76.00;98776.38;4966852;28;103517;-68
2024/02/28 05:10:04;;;;;;;27.85;16.75;;;;;;;5.68;75.69;98781.75;4960721;28;104586;-67
2024/02/28 05:12:32;;;;;;;23.83;15.60;;;;;;;5.77;75.55;98780.13;4980705;28;102641;-67
2024/02/28 05:15:00;;;;;;;24.80;16.08;;;;;;;5.44;76.55;98782.94;4966703;27;103133;-67
2024/02/28 05:17:29;;;;;;;24.42;16.13;;;;;;;5.40;77.08;98771.03;4962062;28;104434;-67
2024/02/28 05:19:57;;;;;;;24.33;15.73;;;;;;;5.25;77.35;98774.97;4962438;28;105433;-67
2024/02/28 05:22:25;;;;;;;24.55;15.10;;;;;;;5.50;76.70;98783.38;4985395;27;102848;-67
2024/02/28 05:24:55;;;;;;;24.73;15.95;;;;;;;5.54;76.32;98784.75;4976847;28;103223;-66
2024/02/28 05:27:23;;;;;;;25.17;16.58;;;;;;;5.62;75.42;98792.78;4955125;28;105811;-67
2024/02/28 05:29:52;;;;;;;25.27;16.42;;;;;;;5.55;76.02;98796.94;4980538;28;103881;-66
2024/02/28 05:32:20;;;;;;;21.50;14.73;;;;;;;5.74;76.10;98797.00;4967542;28;103503;-67
2024/02/28 05:34:50;;;;;;;22.73;13.65;;;;;;;5.65;76.39;98792.53;4960100;28;103014;-67
2024/02/28 05:37:19;;;;;;;26.85;15.95;;;;;;;5.29;76.89;98797.38;4976006;27;102973;-68
2024/02/28 05:39:47;;;;;;;22.10;14.98;;;;;;;5.33;76.63;98793.53;4963521;28;105285;-67
2024/02/28 05:42:20;;;;;;;22.45;14.85;;;;;;;5.22;77.27;98797.06;4965400;28;103041;-67
2024/02/28 05:44:50;;;;;;;25.15;15.85;;;;;;;5.23;76.91;98800.56;4963445;28;102822;-67
2024/02/28 05:47:18;;;;;;;26.13;14.43;;;;;;;5.30;77.30;98792.00;4963503;27;104602;-68
2024/02/28 05:49:50;;;;;;;25.55;15.50;;;;;;;5.51;76.47;98813.94;4965134;28;105701;-67
2024/02/28 05:52:19;;;;;;;23.05;15.27;;;;;;;5.70;75.70;98811.38;4963612;28;102665;-67
2024/02/28 05:54:48;;;;;;;23.92;15.70;;;;;;;5.72;74.77;98819.13;4982428;27;103710;-68
2024/02/28 05:57:16;;;;;;;24.80;14.35;;;;;;;5.56;75.95;98820.44;4956001;27;103138;-67
2024/02/28 05:59:44;;;;;;;23.42;15.15;;;;;;;5.52;76.20;98818.22;4995339;27;107674;-66
2024/02/28 06:02:12;;;;;;;22.45;14.52;;;;;;;5.61;75.78;98822.69;4944269;28;102754;-68
2024/02/28 06:04:40;;;;;;;23.88;16.08;;;;;;;5.36;75.74;98824.78;4965689;28;102992;-67
2024/02/28 06:07:13;;;;;;;25.90;15.68;;;;;;;5.35;76.17;98833.63;4978994;28;105286;-67
2024/02/28 06:09:41;;;;;;;25.73;16.15;;;;;;;5.31;76.10;98843.56;4975267;28;103730;-67
2024/02/28 06:12:11;;;;;;;23.98;13.95;;;;;;;5.37;76.58;98839.59;4966716;28;102740;-68
2024/02/28 06:14:39;;;;;;;24.17;15.15;;;;;;;5.31;76.29;98843.56;4970286;28;102939;-67
2024/02/28 06:17:08;;;;;;;27.73;15.27;;;;;;;5.49;76.43;98845.59;4968389;28;106419;-68
2024/02/28 06:19:35;;;;;;;23.35;15.55;;;;;;;5.72;75.08;98846.22;4971596;28;105865;-67
2024/02/28 06:22:04;;;;;;;22.80;16.00;;;;;;;5.33;75.74;98856.56;4976491;27;102922;-67
2024/02/28 06:24:36;;;;;;;25.70;16.05;;;;;;;5.12;76.58;98852.19;4983374;27;103198;-66
2024/02/28 06:27:05;;;;;;;28.00;15.93;;;;;;;5.17;76.44;98858.84;4981734;27;103820;-68
2024/02/28 06:29:36;;;;;;;26.73;17.17;;;;;;;5.33;75.60;98861.81;4968618;28;105284;-66
2024/02/28 06:32:05;;;;;;;28.00;14.45;;;;;;;5.55;75.76;98865.25;4985877;28;102871;-66
2024/02/28 06:34:35;;;;;;;24.45;14.80;;;;;;;5.67;75.41;98869.44;4974961;28;102886;-68
2024/02/28 06:37:04;;;;;;;24.75;15.70;;;;;;;5.52;75.52;98870.78;4993301;27;103288;-67
2024/02/28 06:39:32;;;;;;;24.38;16.83;;;;;;;5.39;75.76;98877.06;4978873;27;103166;-67
2024/02/28 06:42:02;;;;;;;30.27;17.15;;;;;;;5.31;76.14;98880.34;4973205;27;103068;-67
2024/02/28 06:44:30;;;;;;;24.92;15.93;;;;;;;5.42;75.98;98875.97;4972179;28;102765;-67
2024/02/28 06:46:58;;;;;;;20.38;13.68;;;;;;;5.47;75.94;98882.47;4961823;28;107514;-67
2024/02/28 06:49:27;;;;;;;28.77;17.17;;;;;;;5.52;76.05;98886.53;4971220;28;105251;-67
2024/02/28 06:51:58;;;;;;;30.98;18.30;;;;;;;5.33;75.82;98893.31;4993145;27;102683;-67
2024/02/28 06:54:26;;;;;;;27.85;17.13;;;;;;;5.33;76.36;98895.94;4984064;28;102851;-68
2024/02/28 06:56:54;;;;;;;27.23;17.85;;;;;;;5.41;75.73;98896.16;4981047;27;103400;-66
2024/02/28 06:59:24;;;;;;;28.83;18.08;;;;;;;5.26;76.44;98897.44;4988116;27;103397;-67
2024/02/28 07:01:55;;;;;;;27.08;16.88;;;;;;;5.56;76.07;98893.19;4989802;28;102812;-67
2024/02/28 07:04:23;;;;;;;24.70;16.55;;;;;;;5.47;75.32;98890.38;4988309;27;102728;-67
2024/02/28 07:06:51;;;;;;;28.02;16.75;;;;;;;5.59;75.62;98887.66;4964754;28;103639;-65
2024/02/28 07:09:20;;;;;;;25.15;14.85;;;;;;;5.73;75.35;98892.56;4954417;27;110850;-65
2024/02/28 07:11:48;;;;;;;24.02;15.48;;;;;;;5.77;75.24;98896.59;4939200;28;103145;-65
2024/02/28 07:14:16;;;;;;;24.00;15.98;;;;;;;5.65;75.00;98902.91;4944139;27;102735;-65
2024/02/28 07:16:48;;;;;;;24.15;15.90;;;;;;;5.79;74.57;98910.44;4943428;28;104833;-64
2024/02/28 07:19:19;;;;;;;25.40;17.17;;;;;;;5.87;74.48;98916.81;4940671;28;103380;-67
2024/02/28 07:21:47;;;;;;;24.42;15.45;;;;;;;5.85;74.93;98924.03;4943370;27;102754;-67
2024/02/28 07:24:15;;;;;;;22.55;13.68;;;;;;;6.01;74.51;98927.00;4930685;28;103027;-67
2024/02/28 07:26:46;;;;;;;21.08;13.98;;;;;;;6.17;73.97;98923.88;4951077;28;104198;-68
2024/02/28 07:29:14;;;;;;;26.23;16.30;;;;;;;6.18;73.69;98929.97;4951053;27;103999;-68
2024/02/28 07:31:42;;;;;;;24.90;16.15;;;;;;;6.24;74.03;98934.69;4965111;28;102798;-66
2024/02/28 07:34:12;;;;;;;22.65;13.70;;;;;;;6.23;73.33;98940.91;4979017;27;102654;-66
2024/02/28 07:36:40;;;;;;;20.05;13.55;;;;;;;6.21;73.99;98937.56;4952349;27;103201;-66
2024/02/28 07:39:12;;;;;;;21.73;14.18;;;;;;;6.30;73.17;98944.66;4943900;28;103210;-64
2024/02/28 07:41:41;;;;;;;26.95;16.70;;;;;;;6.22;73.11;98952.41;4922373;28;103472;-64
2024/02/28 07:44:11;;;;;;;26.20;14.82;;;;;;;6.29;73.00;98959.63;4925175;28;104962;-67
2024/02/28 07:46:39;;;;;;;27.08;15.38;;;;;;;6.14;73.82;98953.91;4950743;27;103251;-67
2024/02/28 07:49:07;;;;;;;30.90;15.95;;;;;;;6.25;73.71;98962.63;4932235;28;104441;-64
2024/02/28 07:51:36;;;;;;;26.42;15.90;;;;;;;6.11;74.06;98962.06;4988209;28;102886;-67
2024/02/28 07:54:05;;;;;;;28.80;16.98;;;;;;;5.97;74.00;98962.38;4987432;27;103101;-65
2024/02/28 07:56:33;;;;;;;22.30;14.23;;;;;;;6.11;73.93;98969.94;4984626;28;103563;-65
2024/02/28 07:59:01;;;;;;;25.40;16.55;;;;;;;6.16;73.94;98968.69;4964870;28;104105;-68
2024/02/28 08:01:30;;;;;;;24.25;15.70;;;;;;;6.22;73.61;98974.28;4978190;27;103810;-66
2024/02/28 08:03:59;;;;;;;28.08;16.77;;;;;;;6.25;72.62;98978.44;4968660;27;103556;-65
2024/02/28 08:06:27;;;;;;;26.88;16.05;;;;;;;6.29;72.87;98979.84;4975272;28;107838;-65
2024/02/28 08:08:57;;;;;;;29.85;17.85;;;;;;;5.53;75.54;98980.13;4955567;28;103703;-66
2024/02/28 08:11:25;;;;;;;28.45;18.20;;;;;;;5.87;74.35;98988.63;4983779;27;102688;-66
2024/02/28 08:13:54;;;;;;;28.52;17.23;;;;;;;6.10;73.66;98981.41;4970551;28;102888;-64
2024/02/28 08:16:22;;;;;;;108.53;21.90;;;;;;;5.86;73.94;98986.16;4981177;27;103171;-65
2024/02/28 08:18:52;;;;;;;148.93;26.60;;;;;;;5.62;75.30;98992.50;4981379;28;103241;-65
2024/02/28 08:21:20;;;;;;;51.22;19.23;;;;;;;5.36;75.74;98987.66;4982023;28;102877;-65
2024/02/28 08:23:48;;;;;;;36.05;17.40;;;;;;;5.84;75.51;98990.69;4981716;27;102772;-65
2024/02/28 08:26:18;;;;;;;33.92;17.70;;;;;;;6.08;74.01;98986.00;4966221;28;103679;-68
2024/02/28 08:28:46;;;;;;;28.27;16.25;;;;;;;5.70;75.66;98992.69;4971730;27;104057;-68
2024/02/28 08:31:14;;;;;;;54.08;18.20;;;;;;;5.79;75.27;98989.28;4983696;28;102839;-68
2024/02/28 08:33:42;;;;;;;127.68;22.35;;;;;;;5.72;75.08;98989.94;4985609;27;103191;-67
2024/02/28 08:36:10;;;;;;;49.53;19.92;;;;;;;5.79;74.82;98989.28;4954434;28;105609;-67
2024/02/28 08:38:38;;;;;;;48.03;19.63;;;;;;;5.48;75.21;98991.88;4959788;28;103465;-68
2024/02/28 08:41:08;;;;;;;149.57;24.45;;;;;;;5.73;75.14;98988.97;4974086;28;103002;-67
2024/02/28 08:43:40;;;;;;;115.88;23.92;;;;;;;5.63;74.79;98988.91;4981363;28;102942;-67
2024/02/28 08:46:08;;;;;;;75.13;20.55;;;;;;;5.67;75.69;98984.22;4984517;28;103407;-68
2024/02/28 08:48:40;;;;;;;91.63;22.40;;;;;;;5.61;75.26;98989.03;4982152;28;103245;-67
2024/02/28 08:51:10;;;;;;;50.38;20.45;;;;;;;5.86;74.16;98994.84;4957619;28;103065;-66
2024/02/28 08:53:39;;;;;;;29.17;17.33;;;;;;;5.91;75.01;98987.41;4976618;28;102879;-67
2024/02/28 08:56:07;;;;;;;25.27;15.93;;;;;;;6.25;73.36;98994.19;4982209;27;103627;-66
2024/02/28 08:58:37;;;;;;;29.35;18.83;;;;;;;6.22;72.71;98994.47;4978866;27;105514;-66
2024/02/28 09:01:06;;;;;;;33.25;17.80;;;;;;;6.38;72.73;98997.47;4984867;27;103148;-66
2024/02/28 09:03:35;;;;;;;24.45;15.32;;;;;;;6.43;72.77;98997.03;4970117;28;102847;-66
2024/02/28 09:06:03;;;;;;;25.92;16.80;;;;;;;6.41;73.20;98999.81;4974450;28;110435;-65
2024/02/28 09:08:32;;;;;;;31.65;20.10;;;;;;;6.23;72.65;98999.59;4962088;28;104808;-65
2024/02/28 09:11:00;;;;;;;27.60;17.30;;;;;;;6.26;73.55;99003.75;4983243;27;102720;-64
2024/02/28 09:13:28;;;;;;;28.70;17.42;;;;;;;6.45;72.52;99003.84;4979817;28;102736;-65
2024/02/28 09:15:56;;;;;;;26.45;17.13;;;;;;;6.53;72.10;99004.97;4954424;28;105415;-64
2024/02/28 09:18:25;;;;;;;28.60;17.55;;;;;;;6.61;72.13;99013.03;4994835;28;103614;-65
2024/02/28 09:20:53;;;;;;;25.75;16.50;;;;;;;6.55;72.97;99013.56;4972210;27;102809;-67
2024/02/28 09:23:22;;;;;;;24.20;15.13;;;;;;;6.87;71.37;99002.81;4969862;27;103163;-67
2024/02/28 09:25:52;;;;;;;26.95;15.77;;;;;;;6.78;70.89;99004.44;4964511;28;105791;-67
2024/02/28 09:28:20;;;;;;;29.55;17.83;;;;;;;6.66;71.00;98996.84;4988892;28;103250;-67
2024/02/28 09:30:50;;;;;;;21.77;13.27;;;;;;;6.62;70.88;98996.28;4983744;27;103848;-67
2024/02/28 09:33:20;;;;;;;27.00;16.08;;;;;;;6.54;70.08;99001.38;4981486;28;102765;-67
2024/02/28 09:35:50;;;;;;;22.98;15.35;;;;;;;6.69;69.52;99002.63;4946965;28;105251;-67
2024/02/28 09:38:18;;;;;;;23.00;14.75;;;;;;;7.01;69.33;99004.22;4981641;27;103349;-67
2024/02/28 09:40:47;;;;;;;16.33;11.13;;;;;;;7.03;68.83;98998.81;4979783;27;102819;-67
2024/02/28 09:43:25;;;;;;;23.98;13.50;;;;;;;7.27;67.01;98991.31;4996730;27;102887;-67
2024/02/28 09:45:57;;;;;;;25.92;15.75;;;;;;;7.14;67.92;99006.59;4940872;28;105492;-67
2024/02/28 09:48:29;;;;;;;21.13;13.57;;;;;;;6.90;67.45;98999.06;4984991;28;102732;-67
2024/02/28 09:51:00;;;;;;;22.38;14.27;;;;;;;7.02;67.83;99000.63;4981676;28;103818;-68
2024/02/28 09:53:28;;;;;;;18.73;11.07;;;;;;;7.37;66.85;99001.03;4966629;28;102713;-66
2024/02/28 09:55:56;;;;;;;18.98;13.32;;;;;;;7.09;66.49;99004.34;4969525;28;103254;-66
2024/02/28 09:58:25;;;;;;;21.40;14.35;;;;;;;6.97;67.03;99016.00;4986639;27;103316;-66
2024/02/28 10:01:00;;;;;;;19.13;12.48;;;;;;;7.28;66.75;99013.22;4988806;28;103169;-67
2024/02/28 10:03:29;;;;;;;22.37;14.03;;;;;;;7.14;67.05;99007.41;4978451;28;102911;-67
2024/02/28 10:05:57;;;;;;;24.48;12.82;;;;;;;7.09;67.63;99014.88;4974171;28;104632;-67
2024/02/28 10:08:29;;;;;;;19.40;12.73;;;;;;;7.25;66.04;99016.97;4993638;27;103424;-66
2024/02/28 10:10:58;;;;;;;19.88;12.43;;;;;;;6.95;65.55;99012.66;4968945;28;103848;-67
2024/02/28 10:13:26;;;;;;;20.55;12.80;;;;;;;6.90;66.90;99010.44;4966667;28;102736;-66
2024/02/28 10:15:54;;;;;;;19.20;11.90;;;;;;;7.40;65.94;99014.75;4986379;27;103730;-67
2024/02/28 10:18:22;;;;;;;21.00;13.32;;;;;;;7.29;66.48;99025.44;4977735;28;105125;-67
2024/02/28 10:20:50;;;;;;;17.33;11.70;;;;;;;7.36;65.96;99029.16;4986493;28;102716;-67
2024/02/28 10:23:18;;;;;;;22.88;15.15;;;;;;;7.34;65.94;99036.38;4983709;27;102782;-66
2024/02/28 10:25:48;;;;;;;28.38;17.85;;;;;;;6.77;69.11;99038.81;4981409;28;106581;-67
2024/02/28 10:28:25;;;;;;;22.30;14.45;;;;;;;7.05;68.69;99042.47;4963905;28;103240;-66
2024/02/28 10:30:54;;;;;;;28.38;16.42;;;;;;;6.85;69.15;99043.41;4958251;27;102783;-67
2024/02/28 10:33:22;;;;;;;26.42;16.40;;;;;;;6.76;69.38;99045.91;4965308;28;102730;-66
2024/02/28 10:35:52;;;;;;;24.17;15.52;;;;;;;6.84;69.95;99049.63;4976086;27;103915;-67
2024/02/28 10:38:21;;;;;;;26.70;17.15;;;;;;;7.13;68.74;99047.88;4966471;28;103513;-67
2024/02/28 10:40:52;;;;;;;28.90;16.15;;;;;;;7.26;69.18;99041.53;4979388;27;102787;-67
2024/02/28 10:43:21;;;;;;;23.48;14.75;;;;;;;7.53;68.30;99047.88;4986708;28;102721;-68
2024/02/28 10:45:50;;;;;;;25.58;15.40;;;;;;;7.43;67.74;99051.38;4981981;28;102692;-68
2024/02/28 10:48:38;;;;;;;28.60;17.98;;;;;;;6.61;69.42;99057.75;4986096;27;103215;-67
2024/02/28 10:51:07;;;;;;;29.55;18.85;;;;;;;6.45;70.78;99064.34;4983809;28;103247;-67
2024/02/28 10:53:38;;;;;;;26.17;17.42;;;;;;;6.40;70.64;99069.19;4979239;27;102998;-66
2024/02/28 10:56:12;;;;;;;29.63;17.70;;;;;;;6.83;69.59;99071.69;4964678;28;103383;-68
2024/02/28 10:58:51;;;;;;;28.77;17.17;;;;;;;6.69;69.77;99076.34;4976978;27;103276;-67
2024/02/28 11:01:20;;;;;;;28.10;18.17;;;;;;;6.50;69.97;99076.28;4984624;28;102602;-67
2024/02/28 11:03:51;;;;;;;29.63;18.02;;;;;;;6.42;70.94;99069.88;4990127;27;103614;-67
2024/02/28 11:06:21;;;;;;;28.90;17.98;;;;;;;6.64;69.82;99078.53;4990766;28;103269;-67
2024/02/28 11:08:53;;;;;;;29.33;15.70;;;;;;;6.86;69.92;99071.41;4989244;27;103481;-68
2024/02/28 11:11:23;;;;;;;28.15;17.77;;;;;;;6.70;70.51;99072.75;4971798;28;102723;-67
2024/02/28 11:13:55;;;;;;;25.00;16.83;;;;;;;6.98;69.86;99075.59;4990901;27;102754;-66
2024/02/28 11:16:30;;;;;;;29.73;17.20;;;;;;;6.86;69.37;99080.13;4985076;28;103370;-67
2024/02/28 11:18:58;;;;;;;22.55;14.07;;;;;;;6.94;69.70;99077.69;4991632;27;103404;-67
2024/02/28 11:21:27;;;;;;;22.98;15.57;;;;;;;7.29;68.44;99083.41;4985339;27;102820;-67
2024/02/28 11:23:59;;;;;;;30.15;18.10;;;;;;;6.80;69.43;99091.22;4985330;28;102745;-66